Chicago O'Hare International Airport
KORD : now visible

Airfield :











YOU CAN JOIN US ON...

 
LOGIN :

Register | Disclaimer

   EN    FR    IT 

 









Legend :    VFR   Marginal VFR   IFR   Intensive IFR   Very Intensive IFR
Visi :
Ceiling :
>= 8 km
>= 3000ft
5 to 8 km
1000 to 3000 ft
1500m to 5 km
500 to 1000 ft
800 to 1500m
200 to 500 ft
< 800m
< 200 ft
Symbols :   Thunderstorms  Fog  Heavy snow  Heavy precipitations  Wind > 20 kt






- Airport Elevation : 672 ft
- IATA code : ORD


KORD - Chicago O'Hare International

CURRENT METAR :
  • 301651Z 03009KT 10SM SCT034 SCT200 23/12 A3019 RMK AO2 SLP219 T02280122

EXPIRED METARs :
  • 301551Z 05009KT 10SM SCT040 SCT200 22/13 A3019 RMK AO2 SLP219 T02170128
  • 301451Z 01012KT 10SM SCT040 SCT200 21/13 A3017 RMK AO2 SLP213 T02110128 53016
  • 301351Z 02017KT 10SM FEW028 FEW040 SCT200 20/13 A3015 RMK AO2 PK WND 04026/1254 SLP208 T02000133

TAF KORD
Valid from the 30 at 15:00 until the 31 at 18:00 UTC


301501Z 3015/3118 03012KT P6SM FEW035 SCT200
FM302000 06010KT P6SM BKN200
FM310300 VRB03KT P6SM BKN120
FM311500 24007KT P6SM SCT250
KZAU FIR / North America



MET'MAP, your aeronautical weather chart ! - Copyright ORBIFLY December 2007 - Disclaimer

ORBIFLY MET'MAP TEAM :

Programming & Development : Alexandra Zaïnal
Concept & original design : Baudouin d'Aumeries
Assistance for programming : Marc-Olivier Méhu
Technical & hardware support : Manuel Goepfert

Contact : metmap@orbifly.com




SOURCES & CREDITS :

   NOAA       Earth
Advisory